Time;durP1;ratioP1;P1;durP2;ratioP2;P2;SDS_P1;SDS_P2;PMS_P1;PMS_P2;Temp;Humidity;BMP_temperature;BMP_pressure;BME280_temperature;BME280_humidity;BME280_pressure;Samples;Min_cycle;Max_cycle;Signal;HPM_P1;HPM_P2
2022/10/29 00:00:44;;;;;;;7.47;2.85;;;22.30;64.20;;;;;;5088284;28;20381;-52
2022/10/29 00:03:11;;;;;;;7.75;3.30;;;22.30;64.10;;;;;;5084917;28;20102;-49
2022/10/29 00:05:38;;;;;;;7.78;1.67;;;22.30;64.10;;;;;;5070129;28;20052;-49
2022/10/29 00:08:05;;;;;;;8.38;2.83;;;22.30;64.10;;;;;;5069186;28;20509;-51
2022/10/29 00:10:32;;;;;;;11.77;3.22;;;22.30;64.00;;;;;;5070752;28;20040;-49
2022/10/29 00:13:01;;;;;;;6.05;2.00;;;22.30;63.90;;;;;;5070737;28;20041;-51
2022/10/29 00:15:28;;;;;;;9.18;2.88;;;22.30;64.00;;;;;;5070819;28;20041;-49
2022/10/29 00:17:56;;;;;;;13.73;2.38;;;22.30;63.90;;;;;;5070502;28;20082;-50
2022/10/29 00:20:23;;;;;;;13.45;3.75;;;22.30;63.90;;;;;;5070149;28;20040;-50
2022/10/29 00:22:54;;;;;;;17.67;4.72;;;22.30;63.90;;;;;;5070515;28;20072;-49
2022/10/29 00:25:21;;;;;;;13.73;3.30;;;22.30;63.90;;;;;;5070397;28;20075;-48
2022/10/29 00:27:48;;;;;;;4.65;2.15;;;22.30;63.80;;;;;;5070236;28;20044;-48
2022/10/29 00:30:15;;;;;;;6.05;2.63;;;22.30;63.70;;;;;;5070387;28;20615;-49
2022/10/29 00:32:42;;;;;;;12.05;2.40;;;22.30;63.70;;;;;;5070318;28;20045;-48
2022/10/29 00:35:10;;;;;;;9.45;3.15;;;22.30;63.60;;;;;;5051192;28;20484;-48
2022/10/29 00:37:39;;;;;;;6.78;3.38;;;22.30;63.60;;;;;;5054317;28;20053;-49
2022/10/29 00:40:08;;;;;;;9.90;3.28;;;22.30;63.60;;;;;;5069876;28;20428;-47
2022/10/29 00:42:35;;;;;;;12.93;2.45;;;22.30;63.50;;;;;;5070055;28;20048;-49
2022/10/29 00:45:02;;;;;;;12.55;2.90;;;22.30;63.50;;;;;;5070157;28;20527;-50
2022/10/29 00:47:31;;;;;;;6.68;2.88;;;22.30;63.50;;;;;;5069940;28;20562;-48
2022/10/29 00:50:03;;;;;;;7.43;2.05;;;22.30;63.50;;;;;;5069904;28;20067;-49
2022/10/29 00:52:34;;;;;;;13.30;3.45;;;22.30;63.90;;;;;;5068416;28;20119;-50
2022/10/29 00:55:05;;;;;;;5.20;3.65;;;22.30;63.50;;;;;;5069687;28;20135;-51
2022/10/29 00:57:38;;;;;;;13.85;3.08;;;22.30;63.50;;;;;;5069807;28;20132;-49
2022/10/29 01:00:07;;;;;;;10.63;2.83;;;22.30;63.40;;;;;;5069818;28;20132;-49
2022/10/29 01:02:35;;;;;;;10.23;4.20;;;22.30;63.40;;;;;;5069414;28;20066;-51
2022/10/29 01:05:04;;;;;;;11.07;2.38;;;22.30;63.30;;;;;;5069206;28;20127;-50
2022/10/29 01:07:33;;;;;;;9.40;2.67;;;22.30;63.40;;;;;;5069443;28;20059;-50
2022/10/29 01:10:00;;;;;;;10.05;3.10;;;22.30;63.40;;;;;;5069580;28;20049;-48
2022/10/29 01:12:52;;;;;;;11.27;2.78;;;22.30;63.50;;;;;;5069241;28;20610;-50
2022/10/29 01:15:26;;;;;;;7.82;2.20;;;22.30;63.30;;;;;;5069470;28;20176;-48
2022/10/29 01:18:07;;;;;;;3.10;2.00;;;22.30;63.40;;;;;;5069237;28;20042;-51
2022/10/29 01:21:11;;;;;;;11.10;3.13;;;22.30;63.20;;;;;;5069328;28;20051;-50
2022/10/29 01:24:23;;;;;;;7.53;2.45;;;22.30;63.20;;;;;;5045521;28;20132;-51
2022/10/29 01:27:24;;;;;;;8.55;1.80;;;22.20;63.10;;;;;;5049659;28;20071;-49
2022/10/29 01:30:07;;;;;;;5.00;2.38;;;22.20;63.20;;;;;;5041019;28;20049;-52
2022/10/29 01:32:42;;;;;;;8.60;3.92;;;22.20;63.20;;;;;;5049318;28;20515;-51
2022/10/29 01:35:16;;;;;;;6.15;2.03;;;22.20;63.20;;;;;;5049492;28;20047;-52
2022/10/29 01:38:06;;;;;;;7.25;1.75;;;22.20;63.10;;;;;;5053933;28;20076;-48
2022/10/29 01:40:35;;;;;;;13.02;2.22;;;22.20;63.10;;;;;;5049115;28;20059;-48
2022/10/29 01:43:07;;;;;;;7.20;2.55;;;22.20;63.20;;;;;;5049251;28;20493;-56
2022/10/29 01:45:39;;;;;;;4.43;2.42;;;22.20;63.10;;;;;;5049236;28;20565;-51
2022/10/29 01:48:12;;;;;;;8.25;2.30;;;22.20;63.10;;;;;;5048572;28;20156;-48
2022/10/29 01:50:42;;;;;;;16.17;3.17;;;22.20;63.10;;;;;;5082032;28;20048;-52
2022/10/29 01:53:10;;;;;;;8.82;2.33;;;22.10;63.00;;;;;;5068782;28;20404;-50
2022/10/29 01:55:37;;;;;;;7.65;2.95;;;22.10;63.40;;;;;;5068778;28;20048;-51
2022/10/29 01:58:06;;;;;;;11.77;2.33;;;22.10;62.90;;;;;;5069537;28;20072;-54
2022/10/29 02:00:41;;;;;;;8.43;2.85;;;22.20;63.00;;;;;;5069577;28;20040;-52
2022/10/29 02:03:22;;;;;;;7.68;1.38;;;22.20;62.90;;;;;;5069125;28;20047;-51
2022/10/29 02:05:56;;;;;;;8.88;1.80;;;22.10;62.80;;;;;;5069617;28;20044;-51
2022/10/29 02:08:34;;;;;;;12.07;3.03;;;22.10;62.70;;;;;;5069289;28;20118;-52
2022/10/29 02:11:08;;;;;;;11.05;2.83;;;22.10;62.70;;;;;;5066901;28;20131;-47
2022/10/29 02:13:42;;;;;;;5.85;1.75;;;22.10;62.60;;;;;;5068803;28;20120;-48
2022/10/29 02:16:11;;;;;;;4.22;1.25;;;22.10;62.60;;;;;;5068964;28;20128;-48
2022/10/29 02:18:45;;;;;;;7.72;1.45;;;22.10;62.60;;;;;;5068738;28;20052;-48
2022/10/29 02:21:15;;;;;;;10.40;2.80;;;22.10;62.50;;;;;;5068544;28;20076;-50
2022/10/29 02:23:42;;;;;;;6.80;1.48;;;22.10;62.50;;;;;;5067970;28;20039;-51
2022/10/29 02:26:09;;;;;;;10.93;1.35;;;22.10;62.40;;;;;;5068759;28;20036;-50
2022/10/29 02:28:36;;;;;;;4.20;2.35;;;22.10;62.40;;;;;;5068208;28;20151;-51
2022/10/29 02:31:03;;;;;;;16.08;3.05;;;22.10;62.20;;;;;;5068115;28;20037;-48
2022/10/29 02:33:31;;;;;;;7.90;1.80;;;22.10;62.20;;;;;;5068552;28;20140;-48
2022/10/29 02:35:59;;;;;;;8.27;1.75;;;22.10;62.20;;;;;;5068257;28;20119;-50
2022/10/29 02:38:26;;;;;;;5.38;1.67;;;22.10;62.60;;;;;;5067848;28;20048;-50
2022/10/29 02:40:53;;;;;;;5.57;1.83;;;22.00;62.00;;;;;;5068104;28;20036;-49
2022/10/29 02:43:20;;;;;;;7.95;1.98;;;22.00;62.00;;;;;;5068316;28;20041;-48
2022/10/29 02:45:47;;;;;;;10.20;1.98;;;22.00;61.90;;;;;;5067816;28;20397;-51
2022/10/29 02:48:14;;;;;;;10.13;1.67;;;22.00;61.90;;;;;;5068156;28;20076;-48
2022/10/29 02:50:41;;;;;;;7.32;2.42;;;22.00;61.90;;;;;;5067783;28;20295;-49
2022/10/29 02:53:09;;;;;;;11.00;1.85;;;22.00;61.90;;;;;;5067950;28;20049;-50
2022/10/29 02:55:36;;;;;;;4.43;2.40;;;22.00;61.90;;;;;;5067555;28;20044;-51
2022/10/29 02:58:03;;;;;;;6.57;1.95;;;22.00;61.90;;;;;;5068079;28;20381;-49
2022/10/29 03:00:30;;;;;;;3.80;1.42;;;22.00;61.90;;;;;;5067511;28;20040;-52
2022/10/29 03:02:57;;;;;;;5.07;1.70;;;22.00;61.90;;;;;;5068026;28;20127;-49
2022/10/29 03:05:24;;;;;;;10.95;3.25;;;22.00;61.90;;;;;;5067981;28;20070;-48
2022/10/29 03:07:51;;;;;;;8.07;2.25;;;22.00;62.30;;;;;;5067749;28;20060;-48
2022/10/29 03:10:20;;;;;;;9.32;2.35;;;22.00;61.70;;;;;;5067626;28;20048;-48
2022/10/29 03:12:47;;;;;;;4.63;2.17;;;22.00;61.70;;;;;;5067202;28;20079;-48
2022/10/29 03:15:14;;;;;;;5.68;3.28;;;22.00;61.80;;;;;;5062535;28;20032;-48
2022/10/29 03:17:41;;;;;;;9.10;1.90;;;22.00;61.80;;;;;;5060464;28;20174;-49
2022/10/29 03:20:09;;;;;;;8.38;1.98;;;21.90;61.70;;;;;;5067522;28;20063;-52
2022/10/29 03:22:36;;;;;;;10.18;1.67;;;21.90;61.60;;;;;;5068940;28;20075;-51
2022/10/29 03:25:04;;;;;;;8.00;1.80;;;21.90;61.70;;;;;;5087640;28;20641;-49
2022/10/29 03:27:32;;;;;;;10.63;2.50;;;21.90;61.50;;;;;;5087928;28;20056;-49
2022/10/29 03:29:59;;;;;;;5.53;2.88;;;21.90;61.50;;;;;;5087673;28;20036;-48
2022/10/29 03:32:26;;;;;;;9.15;1.38;;;21.90;61.60;;;;;;5087753;28;20377;-49
2022/10/29 03:34:53;;;;;;;12.88;1.92;;;21.90;61.60;;;;;;5088081;28;20439;-48
2022/10/29 03:37:20;;;;;;;6.18;2.28;;;21.90;61.60;;;;;;5087143;28;20052;-51
2022/10/29 03:39:47;;;;;;;6.72;1.95;;;21.90;61.60;;;;;;5069618;28;20052;-50
2022/10/29 03:42:14;;;;;;;17.60;2.17;;;21.90;61.60;;;;;;5071429;28;20516;-50
2022/10/29 03:44:42;;;;;;;5.15;1.35;;;21.90;61.60;;;;;;5071209;28;20512;-49
2022/10/29 03:47:09;;;;;;;7.30;1.80;;;21.90;61.50;;;;;;5070491;28;20535;-50
2022/10/29 03:49:36;;;;;;;6.63;1.88;;;21.90;62.10;;;;;;5068530;28;20080;-48
2022/10/29 03:52:03;;;;;;;5.68;1.60;;;21.90;61.60;;;;;;5071248;28;20195;-47
2022/10/29 03:54:30;;;;;;;6.40;1.70;;;21.90;61.50;;;;;;5071072;28;20055;-52
2022/10/29 03:56:57;;;;;;;4.60;1.35;;;21.90;61.50;;;;;;5070704;28;20051;-51
2022/10/29 03:59:24;;;;;;;2.88;1.33;;;21.90;61.40;;;;;;5071366;28;20049;-48
2022/10/29 04:01:52;;;;;;;6.97;1.95;;;21.90;62.00;;;;;;5071186;28;20051;-50
2022/10/29 04:04:19;;;;;;;7.45;1.27;;;21.90;61.40;;;;;;5069671;28;20377;-50
2022/10/29 04:06:47;;;;;;;5.15;1.73;;;21.80;61.20;;;;;;5070446;28;20044;-49
2022/10/29 04:09:14;;;;;;;8.43;1.60;;;21.80;61.20;;;;;;5070757;28;20211;-51
2022/10/29 04:11:41;;;;;;;15.65;3.75;;;21.80;61.30;;;;;;5070249;28;20075;-51
2022/10/29 04:14:08;;;;;;;5.25;1.27;;;21.80;61.30;;;;;;5071059;28;20448;-52
2022/10/29 04:16:35;;;;;;;10.70;1.67;;;21.80;61.40;;;;;;5070431;28;20048;-49
2022/10/29 04:19:04;;;;;;;6.57;2.08;;;21.80;61.30;;;;;;5070590;28;20048;-52
2022/10/29 04:21:31;;;;;;;9.18;1.27;;;21.80;61.20;;;;;;5070647;28;20064;-51
2022/10/29 04:23:58;;;;;;;10.55;1.10;;;21.80;61.10;;;;;;5069972;28;20044;-51
2022/10/29 04:26:25;;;;;;;7.63;1.52;;;21.80;61.10;;;;;;5069628;28;20052;-51
2022/10/29 04:28:52;;;;;;;8.98;1.63;;;21.80;61.20;;;;;;5070632;28;20051;-52
2022/10/29 04:31:19;;;;;;;13.35;1.80;;;21.80;61.10;;;;;;5070686;28;20125;-51
2022/10/29 04:33:46;;;;;;;4.22;2.20;;;21.70;61.10;;;;;;5070924;28;20044;-51
2022/10/29 04:36:15;;;;;;;15.45;2.10;;;21.70;61.10;;;;;;5070285;28;20057;-51
2022/10/29 04:38:42;;;;;;;7.82;2.03;;;21.80;61.00;;;;;;5064113;28;20413;-51
2022/10/29 04:41:09;;;;;;;8.75;2.83;;;21.80;61.00;;;;;;5049931;28;20116;-55
2022/10/29 04:43:36;;;;;;;3.97;1.85;;;21.80;61.00;;;;;;5050056;28;20037;-52
2022/10/29 04:46:03;;;;;;;7.45;2.17;;;21.70;60.90;;;;;;5050056;28;20128;-52
2022/10/29 04:48:30;;;;;;;12.15;2.17;;;21.70;60.90;;;;;;5049676;28;20033;-49
2022/10/29 04:50:57;;;;;;;3.97;1.40;;;21.70;60.90;;;;;;5069557;28;20044;-49
2022/10/29 04:53:25;;;;;;;9.23;1.33;;;21.70;61.00;;;;;;5069930;28;20040;-52
2022/10/29 04:55:58;;;;;;;5.55;2.03;;;21.70;60.90;;;;;;5069532;28;20066;-51
2022/10/29 04:58:25;;;;;;;8.18;1.20;;;21.70;60.90;;;;;;5069809;28;20494;-49
2022/10/29 05:00:52;;;;;;;9.55;1.77;;;21.70;60.90;;;;;;5069633;28;20420;-50
2022/10/29 05:03:19;;;;;;;5.72;1.50;;;21.70;60.90;;;;;;5070077;28;20048;-50
2022/10/29 05:05:46;;;;;;;5.35;1.58;;;21.70;60.80;;;;;;5069676;28;20041;-53
2022/10/29 05:08:14;;;;;;;8.13;1.58;;;21.70;60.80;;;;;;5069767;28;20036;-52
2022/10/29 05:10:42;;;;;;;7.50;2.83;;;21.70;60.90;;;;;;5069179;28;20044;-52
2022/10/29 05:13:11;;;;;;;5.00;2.58;;;21.70;60.80;;;;;;5069240;28;20059;-51
2022/10/29 05:15:39;;;;;;;12.45;2.80;;;21.70;60.80;;;;;;5084133;28;20047;-54
2022/10/29 05:18:07;;;;;;;8.85;2.10;;;21.70;60.70;;;;;;5088311;28;20137;-52
2022/10/29 05:20:35;;;;;;;6.75;1.88;;;21.70;61.30;;;;;;5089605;28;20063;-53
2022/10/29 05:23:04;;;;;;;5.80;2.20;;;21.70;60.90;;;;;;5089748;28;20054;-49
2022/10/29 05:25:33;;;;;;;5.43;1.25;;;21.70;60.80;;;;;;5068955;28;20220;-53
2022/10/29 05:28:07;;;;;;;10.23;2.20;;;21.70;60.90;;;;;;5049470;28;20080;-51
2022/10/29 05:30:34;;;;;;;7.07;1.27;;;21.70;60.90;;;;;;5059319;28;20056;-52
2022/10/29 05:33:01;;;;;;;8.73;1.63;;;21.70;60.80;;;;;;5068796;28;20135;-50
2022/10/29 05:35:28;;;;;;;11.25;1.58;;;21.70;60.90;;;;;;5068157;28;20084;-48
2022/10/29 05:37:56;;;;;;;8.73;1.50;;;21.70;60.90;;;;;;5068660;28;20071;-52
2022/10/29 05:40:24;;;;;;;4.68;1.92;;;21.70;60.90;;;;;;5068192;28;20115;-50
2022/10/29 05:42:51;;;;;;;13.32;2.22;;;21.70;60.90;;;;;;5068915;28;20044;-48
2022/10/29 05:45:20;;;;;;;11.73;1.05;;;21.70;60.90;;;;;;5068703;28;20113;-50
2022/10/29 05:47:47;;;;;;;10.07;1.63;;;21.70;60.80;;;;;;5069074;28;20036;-51
2022/10/29 05:50:15;;;;;;;5.70;2.65;;;21.70;60.80;;;;;;5067659;28;20526;-51
2022/10/29 05:52:42;;;;;;;7.10;1.80;;;21.70;60.80;;;;;;5071431;28;20044;-52
2022/10/29 05:55:09;;;;;;;7.60;1.13;;;21.70;60.80;;;;;;5067850;28;20084;-52
2022/10/29 05:57:36;;;;;;;9.75;1.70;;;21.70;60.60;;;;;;5066332;28;20051;-53
2022/10/29 06:00:04;;;;;;;9.48;1.95;;;21.70;60.80;;;;;;5068758;28;20044;-52
2022/10/29 06:02:43;;;;;;;10.80;2.53;;;21.70;60.70;;;;;;5065684;28;20036;-49
2022/10/29 06:05:10;;;;;;;6.35;1.85;;;21.60;60.60;;;;;;5070271;28;20044;-50
2022/10/29 06:07:37;;;;;;;7.85;1.88;;;21.60;60.60;;;;;;5072104;28;20036;-50
2022/10/29 06:10:05;;;;;;;7.28;2.72;;;21.70;60.80;;;;;;5069057;28;20059;-47
2022/10/29 06:12:32;;;;;;;9.77;2.30;;;21.70;61.10;;;;;;5068056;28;20115;-48
2022/10/29 06:14:59;;;;;;;6.05;1.48;;;21.70;61.20;;;;;;5066618;28;20083;-50
2022/10/29 06:17:26;;;;;;;7.65;2.42;;;21.70;61.20;;;;;;5067699;28;20028;-48
2022/10/29 06:19:55;;;;;;;17.50;4.53;;;21.80;61.10;;;;;;5069028;28;20131;-50
2022/10/29 06:22:22;;;;;;;12.88;3.63;;;21.80;60.90;;;;;;5071210;28;20051;-48
2022/10/29 06:24:49;;;;;;;11.65;3.05;;;21.90;60.80;;;;;;5069628;28;20071;-48
2022/10/29 06:27:16;;;;;;;11.20;2.65;;;21.90;60.60;;;;;;5070883;28;20533;-49
2022/10/29 06:29:43;;;;;;;7.63;2.30;;;21.90;60.50;;;;;;5068620;28;20044;-50
2022/10/29 06:32:10;;;;;;;10.07;2.55;;;22.00;60.60;;;;;;5068152;28;20411;-53
2022/10/29 06:34:37;;;;;;;12.50;2.63;;;22.00;61.10;;;;;;5068631;28;20044;-52
2022/10/29 06:37:05;;;;;;;11.70;2.20;;;22.10;61.40;;;;;;5063007;28;20178;-49
2022/10/29 06:39:32;;;;;;;6.18;2.42;;;22.20;61.50;;;;;;5061305;28;20045;-49
2022/10/29 06:41:59;;;;;;;6.82;2.13;;;22.20;61.40;;;;;;5047701;28;20056;-49
2022/10/29 06:44:30;;;;;;;5.80;1.85;;;22.30;61.30;;;;;;5047994;28;20045;-49
2022/10/29 06:46:57;;;;;;;6.07;2.50;;;22.40;61.20;;;;;;5047868;28;20041;-49
2022/10/29 06:49:24;;;;;;;8.00;2.20;;;22.50;61.10;;;;;;5047795;28;20041;-49
2022/10/29 06:51:52;;;;;;;8.45;2.60;;;22.50;61.00;;;;;;5059054;28;20151;-49
2022/10/29 06:54:20;;;;;;;7.32;2.28;;;22.60;60.90;;;;;;5068098;28;20047;-50
2022/10/29 06:56:47;;;;;;;2.78;1.75;;;22.70;60.80;;;;;;5067725;28;20037;-49
2022/10/29 06:59:14;;;;;;;5.20;2.40;;;22.70;60.70;;;;;;5067527;28;20040;-49
2022/10/29 07:01:41;;;;;;;12.32;2.83;;;22.80;61.10;;;;;;5067666;28;20056;-48
2022/10/29 07:04:08;;;;;;;3.78;1.90;;;22.80;60.40;;;;;;5064972;28;20509;-51
2022/10/29 07:06:35;;;;;;;6.53;1.58;;;22.90;60.30;;;;;;5067219;28;20096;-51
2022/10/29 07:09:03;;;;;;;7.10;1.95;;;22.90;60.20;;;;;;5068096;28;20135;-51
2022/10/29 07:11:31;;;;;;;4.47;1.58;;;23.00;60.20;;;;;;5071384;28;20040;-48
2022/10/29 07:13:58;;;;;;;6.45;1.70;;;23.00;60.10;;;;;;5070639;28;20040;-48
2022/10/29 07:16:25;;;;;;;3.53;1.67;;;23.00;60.00;;;;;;5071681;28;20143;-49
2022/10/29 07:18:53;;;;;;;3.25;1.83;;;23.10;59.90;;;;;;5071835;28;20040;-47
2022/10/29 07:21:20;;;;;;;6.53;2.95;;;23.10;59.80;;;;;;5070989;28;20151;-49
2022/10/29 07:23:47;;;;;;;9.00;1.52;;;23.10;59.70;;;;;;5071245;28;20032;-49
2022/10/29 07:26:14;;;;;;;4.70;1.73;;;23.20;59.70;;;;;;5088868;28;20131;-53
2022/10/29 07:28:43;;;;;;;4.93;1.92;;;23.30;59.60;;;;;;5091806;28;20047;-48
2022/10/29 07:31:10;;;;;;;4.10;1.20;;;23.30;59.50;;;;;;5091887;28;20075;-50
2022/10/29 07:33:37;;;;;;;2.22;1.10;;;23.30;59.40;;;;;;5091745;28;20058;-52
2022/10/29 07:36:04;;;;;;;6.35;1.55;;;23.30;59.40;;;;;;5091215;28;20044;-50
2022/10/29 07:38:31;;;;;;;3.50;1.77;;;23.40;59.30;;;;;;5078935;28;20048;-50
2022/10/29 07:40:58;;;;;;;2.30;1.33;;;23.40;59.20;;;;;;5051309;28;20137;-48
2022/10/29 07:43:25;;;;;;;3.75;0.82;;;23.40;59.10;;;;;;5051758;28;20560;-47
2022/10/29 07:45:53;;;;;;;2.70;1.00;;;23.50;59.10;;;;;;5051247;28;20049;-50
2022/10/29 07:48:21;;;;;;;3.78;2.35;;;23.50;59.60;;;;;;5051305;28;20049;-51
2022/10/29 07:50:48;;;;;;;4.43;2.53;;;23.50;58.90;;;;;;5053896;28;20048;-49
2022/10/29 07:53:16;;;;;;;4.43;1.52;;;23.50;58.90;;;;;;5070937;28;20759;-49
2022/10/29 07:55:43;;;;;;;2.60;1.58;;;23.60;58.80;;;;;;5070839;28;20534;-48
2022/10/29 07:58:11;;;;;;;3.38;1.80;;;23.60;58.70;;;;;;5071174;28;20040;-49
2022/10/29 08:00:40;;;;;;;4.43;2.08;;;23.60;59.30;;;;;;5070987;28;20123;-48
2022/10/29 08:03:11;;;;;;;2.88;1.08;;;23.60;58.60;;;;;;5071234;28;20036;-51
2022/10/29 08:05:39;;;;;;;4.35;2.17;;;23.60;58.50;;;;;;5070628;28;20044;-50
2022/10/29 08:08:06;;;;;;;4.50;1.10;;;23.60;58.50;;;;;;5070923;28;20044;-48
2022/10/29 08:10:35;;;;;;;6.10;0.93;;;23.70;58.40;;;;;;5070779;28;20102;-47
2022/10/29 08:13:04;;;;;;;3.97;1.17;;;23.70;58.30;;;;;;5070742;28;20049;-47
2022/10/29 08:15:33;;;;;;;3.28;1.13;;;23.70;58.20;;;;;;5070814;28;20123;-51
2022/10/29 08:18:00;;;;;;;1.75;1.15;;;23.70;58.20;;;;;;5070604;28;20036;-49
2022/10/29 08:20:29;;;;;;;11.65;2.63;;;23.80;58.10;;;;;;5070765;28;20087;-50
2022/10/29 08:22:59;;;;;;;4.53;2.10;;;23.80;58.10;;;;;;5069838;28;20044;-48
2022/10/29 08:25:26;;;;;;;6.30;1.88;;;23.80;58.00;;;;;;5069152;28;20059;-53
2022/10/29 08:28:01;;;;;;;2.00;1.83;;;23.80;57.90;;;;;;5062294;28;20515;-50
2022/10/29 08:30:29;;;;;;;2.78;1.33;;;23.90;58.40;;;;;;5050262;28;20041;-47
2022/10/29 08:32:56;;;;;;;3.45;2.50;;;23.90;57.80;;;;;;5050205;28;20048;-49
2022/10/29 08:35:23;;;;;;;3.10;1.23;;;23.90;57.70;;;;;;5050506;28;20144;-49
2022/10/29 08:37:51;;;;;;;7.50;2.83;;;23.90;57.60;;;;;;5056633;28;20047;-52
2022/10/29 08:40:28;;;;;;;1.60;0.82;;;23.90;57.50;;;;;;5070046;28;20427;-48
2022/10/29 08:43:19;;;;;;;4.47;0.88;;;24.00;57.50;;;;;;5070538;28;20055;-53
2022/10/29 08:45:49;;;;;;;3.13;1.05;;;24.00;57.40;;;;;;5070487;28;20048;-51
2022/10/29 08:48:29;;;;;;;3.33;1.70;;;24.00;57.40;;;;;;5069900;28;20428;-50
2022/10/29 08:51:00;;;;;;;3.97;1.42;;;24.00;57.30;;;;;;5070403;28;20045;-50
2022/10/29 08:53:36;;;;;;;2.75;1.55;;;24.00;57.30;;;;;;5070625;28;20467;-52
2022/10/29 08:56:07;;;;;;;5.32;2.28;;;24.10;57.20;;;;;;5070119;28;20044;-48
2022/10/29 08:58:40;;;;;;;6.65;1.23;;;24.10;57.20;;;;;;5070389;28;20128;-48
2022/10/29 09:01:11;;;;;;;4.85;1.60;;;24.10;57.10;;;;;;5068879;28;20586;-50
2022/10/29 09:03:38;;;;;;;4.60;0.90;;;24.10;57.10;;;;;;5064014;28;20064;-49
2022/10/29 09:06:10;;;;;;;6.55;1.27;;;24.10;57.00;;;;;;5055425;28;20150;-47
2022/10/29 09:08:49;;;;;;;6.80;1.17;;;24.20;57.00;;;;;;5050009;28;20869;-50
2022/10/29 09:11:30;;;;;;;9.35;1.63;;;24.20;56.90;;;;;;5049940;28;20055;-48
2022/10/29 09:14:10;;;;;;;4.57;0.80;;;24.20;57.00;;;;;;5088453;28;20442;-48
2022/10/29 09:16:43;;;;;;;4.72;1.50;;;24.20;56.60;;;;;;5089287;28;20589;-49
2022/10/29 09:19:28;;;;;;;4.25;1.65;;;24.20;56.60;;;;;;5083277;28;20060;-48
2022/10/29 09:22:02;;;;;;;3.28;0.93;;;24.30;56.50;;;;;;5069559;28;20076;-49
2022/10/29 09:24:36;;;;;;;6.65;1.17;;;24.30;56.50;;;;;;5069416;28;20062;-51
2022/10/29 09:27:11;;;;;;;4.38;1.58;;;24.30;56.40;;;;;;5070410;28;20155;-50
2022/10/29 09:30:04;;;;;;;5.03;1.70;;;24.30;56.30;;;;;;5089032;28;20479;-49
2022/10/29 09:32:36;;;;;;;7.28;1.77;;;24.30;56.20;;;;;;5074820;28;20433;-48
2022/10/29 09:35:06;;;;;;;3.92;0.80;;;24.30;56.20;;;;;;5070824;28;20155;-49
2022/10/29 09:37:40;;;;;;;6.43;1.10;;;24.40;56.10;;;;;;5067161;28;20056;-48
2022/10/29 09:40:18;;;;;;;4.78;1.10;;;24.40;56.00;;;;;;5066725;28;20132;-48
2022/10/29 09:42:47;;;;;;;3.17;0.85;;;24.40;55.90;;;;;;5066452;28;20048;-51
2022/10/29 09:45:18;;;;;;;8.18;0.93;;;24.40;55.80;;;;;;5068913;28;20045;-48
2022/10/29 09:47:53;;;;;;;4.55;0.77;;;24.50;55.80;;;;;;5069755;28;20386;-47
2022/10/29 09:50:27;;;;;;;7.75;0.65;;;24.50;55.80;;;;;;5089245;28;20044;-49
2022/10/29 09:52:54;;;;;;;3.35;0.50;;;24.50;56.30;;;;;;5048921;28;20136;-49
2022/10/29 09:55:25;;;;;;;3.25;0.70;;;24.50;55.60;;;;;;5048854;28;20571;-48
2022/10/29 09:57:54;;;;;;;2.25;0.93;;;24.50;55.60;;;;;;5048756;28;20075;-49
2022/10/29 10:00:23;;;;;;;2.92;0.55;;;24.60;55.40;;;;;;5048520;28;20045;-50
2022/10/29 10:02:55;;;;;;;4.20;1.70;;;24.60;55.20;;;;;;5048791;28;20071;-49
2022/10/29 10:05:26;;;;;;;8.07;0.60;;;24.60;55.10;;;;;;5068687;28;20393;-49
2022/10/29 10:08:08;;;;;;;6.78;0.60;;;24.60;54.90;;;;;;5067367;28;20049;-49
2022/10/29 10:10:48;;;;;;;4.05;1.73;;;24.70;54.80;;;;;;5068689;28;20063;-48
2022/10/29 10:13:16;;;;;;;7.32;0.75;;;24.70;54.70;;;;;;5068555;28;20115;-48
2022/10/29 10:15:50;;;;;;;8.25;0.65;;;24.70;54.60;;;;;;5068164;28;20036;-50
2022/10/29 10:18:19;;;;;;;3.80;1.25;;;24.70;54.40;;;;;;5066865;28;20048;-52
2022/10/29 10:20:48;;;;;;;3.65;0.43;;;24.70;54.50;;;;;;5068368;28;20431;-53
2022/10/29 10:23:24;;;;;;;2.97;0.75;;;24.80;54.50;;;;;;5068382;28;20361;-49
2022/10/29 10:25:54;;;;;;;1.50;0.20;;;24.80;54.40;;;;;;5067468;28;20064;-50
2022/10/29 10:28:23;;;;;;;3.88;0.63;;;24.80;54.30;;;;;;5068321;28;20051;-51
2022/10/29 10:31:11;;;;;;;4.25;1.15;;;24.80;54.20;;;;;;5068650;28;20040;-49
2022/10/29 10:33:49;;;;;;;4.55;1.80;;;24.90;54.10;;;;;;5068631;28;20453;-53
2022/10/29 10:36:16;;;;;;;4.97;0.73;;;24.90;54.10;;;;;;5068853;28;20084;-52
2022/10/29 10:38:46;;;;;;;7.32;0.60;;;24.90;54.10;;;;;;5068886;28;20130;-50
2022/10/29 10:41:21;;;;;;;5.75;0.80;;;25.00;54.00;;;;;;5067441;28;20102;-48
2022/10/29 10:43:48;;;;;;;4.60;1.33;;;25.00;54.00;;;;;;5048847;28;20045;-50
2022/10/29 10:46:23;;;;;;;7.47;0.57;;;25.00;53.90;;;;;;5048340;28;20132;-54
2022/10/29 10:48:59;;;;;;;2.17;0.77;;;25.00;53.80;;;;;;5049376;28;20399;-49
2022/10/29 10:51:29;;;;;;;6.85;2.05;;;25.10;53.80;;;;;;5056688;28;20143;-50
2022/10/29 10:53:57;;;;;;;4.72;0.60;;;25.10;53.80;;;;;;5068241;28;20048;-49
2022/10/29 10:56:25;;;;;;;1.25;0.25;;;25.10;53.70;;;;;;5068175;28;20417;-49
2022/10/29 10:59:04;;;;;;;4.15;1.25;;;25.10;53.60;;;;;;5067934;28;20053;-49
2022/10/29 11:01:37;;;;;;;3.05;0.60;;;25.20;53.60;;;;;;5068198;28;20052;-49
2022/10/29 11:04:14;;;;;;;6.43;0.90;;;25.20;53.60;;;;;;5068053;28;20123;-53
2022/10/29 11:06:44;;;;;;;8.65;1.00;;;25.20;53.40;;;;;;5068104;28;20041;-50
2022/10/29 11:09:20;;;;;;;3.63;0.30;;;25.30;53.50;;;;;;5068020;28;20536;-48
2022/10/29 11:11:55;;;;;;;5.18;0.50;;;25.30;53.40;;;;;;5067800;28;20463;-48
2022/10/29 11:14:27;;;;;;;1.50;0.38;;;25.30;53.30;;;;;;5068071;28;20054;-48
2022/10/29 11:16:57;;;;;;;1.85;0.28;;;25.30;53.30;;;;;;5067954;28;20068;-51
2022/10/29 11:19:30;;;;;;;4.28;1.92;;;25.30;53.20;;;;;;5068092;28;20040;-51
2022/10/29 11:22:06;;;;;;;5.57;1.73;;;25.40;53.20;;;;;;5068087;28;20139;-49
2022/10/29 11:24:41;;;;;;;6.43;1.08;;;25.40;53.10;;;;;;5066057;28;20041;-49
2022/10/29 11:27:21;;;;;;;9.90;0.55;;;25.40;53.10;;;;;;5081869;28;20486;-49
2022/10/29 11:29:55;;;;;;;2.28;0.40;;;25.40;53.00;;;;;;5087966;28;20047;-49
2022/10/29 11:32:29;;;;;;;1.70;0.35;;;25.40;53.00;;;;;;5047724;28;20408;-51
2022/10/29 11:35:03;;;;;;;4.22;0.40;;;25.50;53.60;;;;;;5064841;28;20044;-48
2022/10/29 11:37:38;;;;;;;4.25;0.88;;;25.50;52.90;;;;;;5067373;28;20041;-49
2022/10/29 11:40:12;;;;;;;5.63;0.90;;;25.50;52.90;;;;;;5067769;28;20705;-49
2022/10/29 11:42:41;;;;;;;1.50;1.13;;;25.50;52.80;;;;;;5067446;28;20167;-49
2022/10/29 11:45:12;;;;;;;4.50;1.83;;;25.60;52.80;;;;;;5067618;28;20432;-49
2022/10/29 11:47:51;;;;;;;6.32;1.55;;;25.60;52.80;;;;;;5067380;28;20865;-48
2022/10/29 11:50:27;;;;;;;3.67;1.05;;;25.60;52.70;;;;;;5067366;28;20045;-48
2022/10/29 11:53:03;;;;;;;2.70;1.25;;;25.60;52.70;;;;;;5047584;28;20043;-47
2022/10/29 11:55:35;;;;;;;;;;;25.70;52.70;;;;;;5047453;28;20122;-48
2022/10/29 11:58:16;;;;;;;2.38;0.35;;;25.60;52.70;;;;;;5050098;28;19925;-48
2022/10/29 12:00:55;;;;;;;2.80;0.73;;;25.70;52.80;;;;;;5051245;28;20148;-50
2022/10/29 12:03:49;;;;;;;3.50;1.20;;;25.70;52.80;;;;;;5056030;28;20044;-48
2022/10/29 12:06:23;;;;;;;3.78;0.38;;;25.70;52.70;;;;;;5028025;28;21064;-49
2022/10/29 12:09:05;;;;;;;4.68;0.98;;;25.70;52.60;;;;;;5028435;28;20487;-50
2022/10/29 12:11:40;;;;;;;2.65;0.40;;;25.80;52.60;;;;;;5011385;28;20085;-48
2022/10/29 12:14:20;;;;;;;4.20;1.17;;;25.80;52.60;;;;;;5028435;28;20055;-51
2022/10/29 12:16:56;;;;;;;2.30;0.55;;;25.80;52.50;;;;;;5028032;28;20737;-48
2022/10/29 12:19:30;;;;;;;;;;;25.80;52.50;;;;;;5028357;28;20060;-53
2022/10/29 12:22:05;;;;;;;3.00;0.68;;;25.80;52.60;;;;;;5028153;28;19968;-50
2022/10/29 12:24:46;;;;;;;2.87;0.50;;;25.80;52.60;;;;;;5027719;28;20136;-49
2022/10/29 12:27:19;;;;;;;6.07;0.50;;;25.80;52.60;;;;;;5027846;28;20300;-49
2022/10/29 12:29:55;;;;;;;1.90;0.40;;;25.90;52.50;;;;;;5028091;28;20138;-51
2022/10/29 12:32:28;;;;;;;1.70;0.57;;;25.90;52.40;;;;;;5028156;28;20093;-48
2022/10/29 12:35:01;;;;;;;1.58;0.93;;;25.90;52.30;;;;;;5027721;28;20128;-49
2022/10/29 12:37:36;;;;;;;6.03;0.60;;;26.00;52.20;;;;;;5027302;28;20425;-49
2022/10/29 12:40:14;;;;;;;3.80;1.98;;;26.00;52.20;;;;;;5027706;28;20038;-48
2022/10/29 12:42:41;;;;;;;5.32;0.60;;;26.00;52.10;;;;;;5033180;28;20057;-51
2022/10/29 12:45:29;;;;;;;1.70;0.40;;;26.10;52.10;;;;;;5070347;28;20218;-49
2022/10/29 12:48:04;;;;;;;3.05;0.60;;;26.20;52.00;;;;;;5070172;28;20068;-51
2022/10/29 12:50:45;;;;;;;2.95;0.68;;;26.20;51.90;;;;;;5069998;28;20048;-49
2022/10/29 12:53:20;;;;;;;2.28;0.88;;;26.20;51.80;;;;;;5070282;28;20077;-51
2022/10/29 12:55:48;;;;;;;1.20;0.40;;;26.30;51.80;;;;;;5070387;28;20051;-51
2022/10/29 12:58:48;;;;;;;1.92;0.50;;;26.30;51.70;;;;;;5070389;28;20085;-53
2022/10/29 13:01:45;;;;;;;1.15;0.40;;;26.30;51.50;;;;;;5069359;28;20041;-47
2022/10/29 13:04:26;;;;;;;3.63;0.28;;;26.30;51.40;;;;;;5068346;28;20135;-49